sensor_id;sensor_type;location;lat;lon;timestamp;P1;durP1;ratioP1;P2;durP2;ratioP2
49626;SDS011;35527;54.616;39.786;2023-06-10T00:01:44;6.50;;;3.05;;
49626;SDS011;35527;54.616;39.786;2023-06-10T00:04:52;5.72;;;2.97;;
49626;SDS011;35527;54.616;39.786;2023-06-10T00:08:00;8.48;;;3.47;;
49626;SDS011;35527;54.616;39.786;2023-06-10T00:11:10;6.82;;;3.53;;
49626;SDS011;35527;54.616;39.786;2023-06-10T00:14:15;6.55;;;3.35;;
49626;SDS011;35527;54.616;39.786;2023-06-10T00:17:18;8.37;;;3.17;;
49626;SDS011;35527;54.616;39.786;2023-06-10T00:20:23;7.03;;;3.10;;
49626;SDS011;35527;54.616;39.786;2023-06-10T00:23:25;6.80;;;3.53;;
49626;SDS011;35527;54.616;39.786;2023-06-10T00:26:30;6.03;;;3.60;;
49626;SDS011;35527;54.616;39.786;2023-06-10T00:29:34;8.38;;;3.70;;
49626;SDS011;35527;54.616;39.786;2023-06-10T00:32:40;6.32;;;3.78;;
49626;SDS011;35527;54.616;39.786;2023-06-10T00:35:43;7.88;;;3.20;;
49626;SDS011;35527;54.616;39.786;2023-06-10T00:38:48;6.03;;;3.33;;
49626;SDS011;35527;54.616;39.786;2023-06-10T00:41:52;7.72;;;3.38;;
49626;SDS011;35527;54.616;39.786;2023-06-10T00:44:58;6.63;;;3.15;;
49626;SDS011;35527;54.616;39.786;2023-06-10T00:48:04;7.97;;;3.72;;
49626;SDS011;35527;54.616;39.786;2023-06-10T00:51:12;5.07;;;3.40;;
49626;SDS011;35527;54.616;39.786;2023-06-10T00:54:16;5.90;;;3.33;;
49626;SDS011;35527;54.616;39.786;2023-06-10T00:57:23;7.00;;;3.08;;
49626;SDS011;35527;54.616;39.786;2023-06-10T01:00:31;9.57;;;3.15;;
49626;SDS011;35527;54.616;39.786;2023-06-10T01:03:39;9.10;;;2.95;;
49626;SDS011;35527;54.616;39.786;2023-06-10T01:10:50;7.68;;;3.00;;
49626;SDS011;35527;54.616;39.786;2023-06-10T01:13:35;6.72;;;3.05;;
49626;SDS011;35527;54.616;39.786;2023-06-10T01:16:43;6.43;;;2.90;;
49626;SDS011;35527;54.616;39.786;2023-06-10T01:19:54;5.55;;;3.08;;
49626;SDS011;35527;54.616;39.786;2023-06-10T01:23:03;5.95;;;3.10;;
49626;SDS011;35527;54.616;39.786;2023-06-10T01:26:08;7.68;;;2.88;;
49626;SDS011;35527;54.616;39.786;2023-06-10T01:29:14;5.55;;;2.97;;
49626;SDS011;35527;54.616;39.786;2023-06-10T01:32:27;5.15;;;2.65;;
49626;SDS011;35527;54.616;39.786;2023-06-10T01:35:43;5.32;;;2.80;;
49626;SDS011;35527;54.616;39.786;2023-06-10T01:38:52;6.80;;;3.47;;
49626;SDS011;35527;54.616;39.786;2023-06-10T01:41:56;6.70;;;3.22;;
49626;SDS011;35527;54.616;39.786;2023-06-10T01:45:00;5.03;;;3.10;;
49626;SDS011;35527;54.616;39.786;2023-06-10T01:48:05;6.75;;;3.10;;
49626;SDS011;35527;54.616;39.786;2023-06-10T01:51:15;7.68;;;3.03;;
49626;SDS011;35527;54.616;39.786;2023-06-10T01:54:20;6.40;;;2.72;;
49626;SDS011;35527;54.616;39.786;2023-06-10T01:57:24;5.32;;;2.80;;
49626;SDS011;35527;54.616;39.786;2023-06-10T02:00:28;5.50;;;2.90;;
49626;SDS011;35527;54.616;39.786;2023-06-10T02:03:32;7.43;;;3.13;;
49626;SDS011;35527;54.616;39.786;2023-06-10T02:06:36;5.57;;;2.80;;
49626;SDS011;35527;54.616;39.786;2023-06-10T02:09:41;5.65;;;3.00;;
49626;SDS011;35527;54.616;39.786;2023-06-10T02:12:45;5.43;;;2.90;;
49626;SDS011;35527;54.616;39.786;2023-06-10T02:15:52;4.60;;;2.70;;
49626;SDS011;35527;54.616;39.786;2023-06-10T02:19:03;6.15;;;3.00;;
49626;SDS011;35527;54.616;39.786;2023-06-10T02:22:09;6.10;;;2.58;;
49626;SDS011;35527;54.616;39.786;2023-06-10T02:25:13;6.53;;;2.80;;
49626;SDS011;35527;54.616;39.786;2023-06-10T02:28:16;4.35;;;2.72;;
49626;SDS011;35527;54.616;39.786;2023-06-10T02:31:20;5.63;;;2.70;;
49626;SDS011;35527;54.616;39.786;2023-06-10T02:34:24;7.10;;;2.63;;
49626;SDS011;35527;54.616;39.786;2023-06-10T02:37:29;4.90;;;2.75;;
49626;SDS011;35527;54.616;39.786;2023-06-10T02:40:34;5.10;;;2.30;;
49626;SDS011;35527;54.616;39.786;2023-06-10T02:43:38;7.15;;;2.55;;
49626;SDS011;35527;54.616;39.786;2023-06-10T02:46:42;5.65;;;2.83;;
49626;SDS011;35527;54.616;39.786;2023-06-10T02:49:46;4.25;;;2.22;;
49626;SDS011;35527;54.616;39.786;2023-06-10T02:52:49;4.97;;;2.63;;
49626;SDS011;35527;54.616;39.786;2023-06-10T02:55:54;4.88;;;2.22;;
49626;SDS011;35527;54.616;39.786;2023-06-10T02:58:57;4.38;;;2.15;;
49626;SDS011;35527;54.616;39.786;2023-06-10T03:02:03;4.20;;;2.40;;
49626;SDS011;35527;54.616;39.786;2023-06-10T03:05:14;4.32;;;1.80;;
49626;SDS011;35527;54.616;39.786;2023-06-10T03:08:22;5.75;;;2.10;;
49626;SDS011;35527;54.616;39.786;2023-06-10T03:11:25;3.83;;;1.98;;
49626;SDS011;35527;54.616;39.786;2023-06-10T03:14:31;5.40;;;1.80;;
49626;SDS011;35527;54.616;39.786;2023-06-10T03:17:36;4.18;;;1.90;;
49626;SDS011;35527;54.616;39.786;2023-06-10T03:20:41;6.25;;;1.90;;
49626;SDS011;35527;54.616;39.786;2023-06-10T03:23:47;4.28;;;1.92;;
49626;SDS011;35527;54.616;39.786;2023-06-10T03:26:50;4.00;;;1.67;;
49626;SDS011;35527;54.616;39.786;2023-06-10T03:29:53;5.57;;;2.30;;
49626;SDS011;35527;54.616;39.786;2023-06-10T03:32:56;4.82;;;2.05;;
49626;SDS011;35527;54.616;39.786;2023-06-10T03:36:03;3.90;;;1.60;;
49626;SDS011;35527;54.616;39.786;2023-06-10T03:39:06;3.58;;;1.67;;
49626;SDS011;35527;54.616;39.786;2023-06-10T03:42:11;3.38;;;1.83;;
49626;SDS011;35527;54.616;39.786;2023-06-10T03:45:18;4.25;;;1.70;;
49626;SDS011;35527;54.616;39.786;2023-06-10T03:48:21;5.53;;;1.90;;
49626;SDS011;35527;54.616;39.786;2023-06-10T03:54:31;4.18;;;1.75;;
49626;SDS011;35527;54.616;39.786;2023-06-10T03:57:34;3.90;;;1.75;;
49626;SDS011;35527;54.616;39.786;2023-06-10T04:00:37;3.40;;;1.60;;
49626;SDS011;35527;54.616;39.786;2023-06-10T04:03:44;3.53;;;1.85;;
49626;SDS011;35527;54.616;39.786;2023-06-10T04:06:51;2.75;;;1.60;;
49626;SDS011;35527;54.616;39.786;2023-06-10T04:09:57;6.45;;;1.75;;
49626;SDS011;35527;54.616;39.786;2023-06-10T04:13:00;4.40;;;1.60;;
49626;SDS011;35527;54.616;39.786;2023-06-10T04:16:09;5.25;;;1.70;;
49626;SDS011;35527;54.616;39.786;2023-06-10T04:19:12;4.35;;;1.70;;
49626;SDS011;35527;54.616;39.786;2023-06-10T04:22:15;6.32;;;1.85;;
49626;SDS011;35527;54.616;39.786;2023-06-10T04:25:19;5.90;;;1.55;;
49626;SDS011;35527;54.616;39.786;2023-06-10T04:28:28;6.00;;;1.60;;
49626;SDS011;35527;54.616;39.786;2023-06-10T04:31:34;4.13;;;1.67;;
49626;SDS011;35527;54.616;39.786;2023-06-10T04:34:37;3.63;;;1.48;;
49626;SDS011;35527;54.616;39.786;2023-06-10T04:37:43;4.82;;;1.52;;
49626;SDS011;35527;54.616;39.786;2023-06-10T04:40:47;5.60;;;1.52;;
49626;SDS011;35527;54.616;39.786;2023-06-10T04:43:52;4.97;;;1.97;;
49626;SDS011;35527;54.616;39.786;2023-06-10T04:46:56;3.33;;;1.45;;
49626;SDS011;35527;54.616;39.786;2023-06-10T04:50:02;4.78;;;1.63;;
49626;SDS011;35527;54.616;39.786;2023-06-10T04:53:08;3.65;;;1.20;;
49626;SDS011;35527;54.616;39.786;2023-06-10T04:56:14;5.38;;;1.20;;
49626;SDS011;35527;54.616;39.786;2023-06-10T04:59:20;4.55;;;1.60;;
49626;SDS011;35527;54.616;39.786;2023-06-10T05:02:24;3.20;;;1.20;;
49626;SDS011;35527;54.616;39.786;2023-06-10T05:05:31;5.32;;;1.50;;
49626;SDS011;35527;54.616;39.786;2023-06-10T05:08:35;4.90;;;1.33;;
49626;SDS011;35527;54.616;39.786;2023-06-10T05:11:39;3.92;;;1.30;;
49626;SDS011;35527;54.616;39.786;2023-06-10T05:14:43;3.13;;;1.15;;
49626;SDS011;35527;54.616;39.786;2023-06-10T05:17:47;3.30;;;1.40;;
49626;SDS011;35527;54.616;39.786;2023-06-10T05:20:52;3.15;;;1.60;;
49626;SDS011;35527;54.616;39.786;2023-06-10T05:26:59;5.95;;;1.35;;
49626;SDS011;35527;54.616;39.786;2023-06-10T05:30:03;6.28;;;1.27;;
49626;SDS011;35527;54.616;39.786;2023-06-10T05:33:07;3.95;;;1.30;;
49626;SDS011;35527;54.616;39.786;2023-06-10T05:36:12;4.47;;;1.35;;
49626;SDS011;35527;54.616;39.786;2023-06-10T05:39:16;4.47;;;1.60;;
49626;SDS011;35527;54.616;39.786;2023-06-10T05:42:21;6.80;;;1.40;;
49626;SDS011;35527;54.616;39.786;2023-06-10T05:45:24;4.20;;;1.50;;
49626;SDS011;35527;54.616;39.786;2023-06-10T05:48:27;2.80;;;1.52;;
49626;SDS011;35527;54.616;39.786;2023-06-10T05:51:31;3.10;;;1.35;;
49626;SDS011;35527;54.616;39.786;2023-06-10T05:54:33;4.53;;;1.40;;
49626;SDS011;35527;54.616;39.786;2023-06-10T05:57:43;3.65;;;1.60;;
49626;SDS011;35527;54.616;39.786;2023-06-10T06:00:45;3.55;;;1.58;;
49626;SDS011;35527;54.616;39.786;2023-06-10T06:03:54;4.35;;;1.60;;
49626;SDS011;35527;54.616;39.786;2023-06-10T06:06:58;4.70;;;1.75;;
49626;SDS011;35527;54.616;39.786;2023-06-10T06:10:01;5.57;;;1.42;;
49626;SDS011;35527;54.616;39.786;2023-06-10T06:13:05;4.47;;;1.50;;
49626;SDS011;35527;54.616;39.786;2023-06-10T06:16:08;4.95;;;1.80;;
49626;SDS011;35527;54.616;39.786;2023-06-10T06:19:11;4.55;;;1.55;;
49626;SDS011;35527;54.616;39.786;2023-06-10T06:22:15;3.75;;;1.38;;
49626;SDS011;35527;54.616;39.786;2023-06-10T06:25:23;4.35;;;1.42;;
49626;SDS011;35527;54.616;39.786;2023-06-10T06:28:25;5.55;;;1.50;;
49626;SDS011;35527;54.616;39.786;2023-06-10T06:31:31;4.35;;;1.50;;
49626;SDS011;35527;54.616;39.786;2023-06-10T06:34:36;2.47;;;1.33;;
49626;SDS011;35527;54.616;39.786;2023-06-10T06:37:38;2.80;;;1.55;;
49626;SDS011;35527;54.616;39.786;2023-06-10T06:40:53;4.25;;;1.40;;
49626;SDS011;35527;54.616;39.786;2023-06-10T06:43:56;3.17;;;1.40;;
49626;SDS011;35527;54.616;39.786;2023-06-10T06:47:06;7.57;;;1.40;;
49626;SDS011;35527;54.616;39.786;2023-06-10T06:50:09;2.78;;;1.30;;
49626;SDS011;35527;54.616;39.786;2023-06-10T06:53:12;3.20;;;1.30;;
49626;SDS011;35527;54.616;39.786;2023-06-10T06:56:16;4.40;;;1.30;;
49626;SDS011;35527;54.616;39.786;2023-06-10T06:59:19;4.70;;;1.30;;
49626;SDS011;35527;54.616;39.786;2023-06-10T07:02:25;2.22;;;1.30;;
49626;SDS011;35527;54.616;39.786;2023-06-10T07:05:28;2.03;;;1.20;;
49626;SDS011;35527;54.616;39.786;2023-06-10T07:08:32;2.33;;;1.33;;
49626;SDS011;35527;54.616;39.786;2023-06-10T07:11:35;1.88;;;1.15;;
49626;SDS011;35527;54.616;39.786;2023-06-10T07:14:39;2.55;;;1.25;;
49626;SDS011;35527;54.616;39.786;2023-06-10T07:17:44;4.35;;;1.42;;
49626;SDS011;35527;54.616;39.786;2023-06-10T07:20:50;2.90;;;1.30;;
49626;SDS011;35527;54.616;39.786;2023-06-10T07:23:58;2.65;;;1.30;;
49626;SDS011;35527;54.616;39.786;2023-06-10T07:27:02;3.70;;;1.33;;
49626;SDS011;35527;54.616;39.786;2023-06-10T07:30:05;5.35;;;1.20;;
49626;SDS011;35527;54.616;39.786;2023-06-10T07:33:11;5.15;;;1.60;;
49626;SDS011;35527;54.616;39.786;2023-06-10T07:36:17;3.25;;;1.40;;
49626;SDS011;35527;54.616;39.786;2023-06-10T07:39:21;2.40;;;1.30;;
49626;SDS011;35527;54.616;39.786;2023-06-10T07:42:23;4.80;;;1.30;;
49626;SDS011;35527;54.616;39.786;2023-06-10T07:45:27;2.10;;;1.27;;
49626;SDS011;35527;54.616;39.786;2023-06-10T07:48:29;3.80;;;1.50;;
49626;SDS011;35527;54.616;39.786;2023-06-10T07:51:32;6.70;;;1.55;;
49626;SDS011;35527;54.616;39.786;2023-06-10T07:54:36;3.58;;;1.30;;
49626;SDS011;35527;54.616;39.786;2023-06-10T08:00:46;4.20;;;1.23;;
49626;SDS011;35527;54.616;39.786;2023-06-10T08:03:49;2.80;;;1.30;;
49626;SDS011;35527;54.616;39.786;2023-06-10T08:06:53;3.00;;;1.30;;
49626;SDS011;35527;54.616;39.786;2023-06-10T08:09:56;2.75;;;1.27;;
49626;SDS011;35527;54.616;39.786;2023-06-10T08:12:59;2.35;;;1.33;;
49626;SDS011;35527;54.616;39.786;2023-06-10T08:16:03;2.67;;;1.40;;
49626;SDS011;35527;54.616;39.786;2023-06-10T08:19:07;3.92;;;1.20;;
49626;SDS011;35527;54.616;39.786;2023-06-10T08:22:11;7.05;;;1.40;;
49626;SDS011;35527;54.616;39.786;2023-06-10T08:25:15;3.03;;;1.40;;
49626;SDS011;35527;54.616;39.786;2023-06-10T08:28:18;3.53;;;1.40;;
49626;SDS011;35527;54.616;39.786;2023-06-10T08:31:21;3.67;;;1.58;;
49626;SDS011;35527;54.616;39.786;2023-06-10T08:34:24;3.92;;;1.27;;
49626;SDS011;35527;54.616;39.786;2023-06-10T08:37:27;4.63;;;1.40;;
49626;SDS011;35527;54.616;39.786;2023-06-10T08:40:30;4.03;;;1.35;;
49626;SDS011;35527;54.616;39.786;2023-06-10T08:43:37;3.38;;;1.30;;
49626;SDS011;35527;54.616;39.786;2023-06-10T08:46:48;2.88;;;1.13;;
49626;SDS011;35527;54.616;39.786;2023-06-10T08:49:55;3.58;;;1.30;;
49626;SDS011;35527;54.616;39.786;2023-06-10T08:53:00;4.20;;;1.33;;
49626;SDS011;35527;54.616;39.786;2023-06-10T08:56:06;3.88;;;1.23;;
49626;SDS011;35527;54.616;39.786;2023-06-10T09:02:41;3.10;;;1.50;;
49626;SDS011;35527;54.616;39.786;2023-06-10T09:05:46;3.22;;;1.20;;
49626;SDS011;35527;54.616;39.786;2023-06-10T09:11:56;3.35;;;1.20;;
49626;SDS011;35527;54.616;39.786;2023-06-10T09:14:59;4.40;;;1.30;;
49626;SDS011;35527;54.616;39.786;2023-06-10T09:18:06;4.00;;;1.58;;
49626;SDS011;35527;54.616;39.786;2023-06-10T09:21:10;3.55;;;1.40;;
49626;SDS011;35527;54.616;39.786;2023-06-10T09:24:15;3.00;;;1.38;;
49626;SDS011;35527;54.616;39.786;2023-06-10T09:27:20;3.75;;;1.33;;
49626;SDS011;35527;54.616;39.786;2023-06-10T09:30:24;2.25;;;1.30;;
49626;SDS011;35527;54.616;39.786;2023-06-10T09:33:39;3.38;;;1.40;;
49626;SDS011;35527;54.616;39.786;2023-06-10T09:36:43;4.80;;;1.48;;
49626;SDS011;35527;54.616;39.786;2023-06-10T09:40:00;2.88;;;1.13;;
49626;SDS011;35527;54.616;39.786;2023-06-10T09:43:07;2.45;;;1.23;;
49626;SDS011;35527;54.616;39.786;2023-06-10T09:49:23;3.70;;;1.20;;
49626;SDS011;35527;54.616;39.786;2023-06-10T09:52:27;3.72;;;1.50;;
49626;SDS011;35527;54.616;39.786;2023-06-10T09:55:32;2.70;;;1.30;;
49626;SDS011;35527;54.616;39.786;2023-06-10T09:58:38;2.25;;;1.33;;
49626;SDS011;35527;54.616;39.786;2023-06-10T10:01:44;6.07;;;1.83;;
49626;SDS011;35527;54.616;39.786;2023-06-10T10:05:03;6.53;;;1.60;;
49626;SDS011;35527;54.616;39.786;2023-06-10T10:08:09;4.68;;;1.40;;
49626;SDS011;35527;54.616;39.786;2023-06-10T10:11:17;2.40;;;1.40;;
49626;SDS011;35527;54.616;39.786;2023-06-10T10:14:22;5.65;;;1.35;;
49626;SDS011;35527;54.616;39.786;2023-06-10T10:17:27;3.10;;;1.38;;
49626;SDS011;35527;54.616;39.786;2023-06-10T10:20:39;2.97;;;1.40;;
49626;SDS011;35527;54.616;39.786;2023-06-10T10:24:09;4.27;;;1.40;;
49626;SDS011;35527;54.616;39.786;2023-06-10T10:27:29;2.92;;;1.20;;
49626;SDS011;35527;54.616;39.786;2023-06-10T10:30:37;5.03;;;1.40;;
49626;SDS011;35527;54.616;39.786;2023-06-10T10:33:58;2.58;;;1.40;;
49626;SDS011;35527;54.616;39.786;2023-06-10T10:37:03;3.47;;;1.27;;
49626;SDS011;35527;54.616;39.786;2023-06-10T10:43:10;4.53;;;1.40;;
49626;SDS011;35527;54.616;39.786;2023-06-10T10:46:14;3.97;;;1.25;;
49626;SDS011;35527;54.616;39.786;2023-06-10T10:49:20;2.50;;;1.30;;
49626;SDS011;35527;54.616;39.786;2023-06-10T10:52:24;2.70;;;1.25;;
49626;SDS011;35527;54.616;39.786;2023-06-10T10:55:32;2.95;;;1.30;;
49626;SDS011;35527;54.616;39.786;2023-06-10T10:58:35;3.80;;;1.38;;
49626;SDS011;35527;54.616;39.786;2023-06-10T11:01:40;2.40;;;1.00;;
49626;SDS011;35527;54.616;39.786;2023-06-10T11:04:48;3.33;;;1.30;;
49626;SDS011;35527;54.616;39.786;2023-06-10T11:07:53;3.22;;;1.10;;
49626;SDS011;35527;54.616;39.786;2023-06-10T11:11:00;2.75;;;1.10;;
49626;SDS011;35527;54.616;39.786;2023-06-10T11:14:31;2.53;;;1.25;;
49626;SDS011;35527;54.616;39.786;2023-06-10T11:17:37;2.08;;;1.13;;
49626;SDS011;35527;54.616;39.786;2023-06-10T11:23:52;2.85;;;1.02;;
49626;SDS011;35527;54.616;39.786;2023-06-10T11:30:40;2.10;;;1.17;;
49626;SDS011;35527;54.616;39.786;2023-06-10T11:33:45;2.67;;;1.02;;
49626;SDS011;35527;54.616;39.786;2023-06-10T11:36:51;2.65;;;1.00;;
49626;SDS011;35527;54.616;39.786;2023-06-10T11:39:56;2.78;;;1.10;;
49626;SDS011;35527;54.616;39.786;2023-06-10T11:42:58;3.03;;;1.08;;
49626;SDS011;35527;54.616;39.786;2023-06-10T11:46:02;3.08;;;1.10;;
49626;SDS011;35527;54.616;39.786;2023-06-10T11:49:09;2.88;;;1.17;;
49626;SDS011;35527;54.616;39.786;2023-06-10T11:52:14;4.57;;;1.10;;
49626;SDS011;35527;54.616;39.786;2023-06-10T11:55:17;1.90;;;1.13;;
49626;SDS011;35527;54.616;39.786;2023-06-10T11:58:21;1.13;;;0.77;;
49626;SDS011;35527;54.616;39.786;2023-06-10T12:01:25;4.85;;;1.13;;
49626;SDS011;35527;54.616;39.786;2023-06-10T12:04:35;3.90;;;1.50;;
49626;SDS011;35527;54.616;39.786;2023-06-10T12:07:40;2.85;;;1.10;;
49626;SDS011;35527;54.616;39.786;2023-06-10T12:10:42;3.38;;;1.30;;
49626;SDS011;35527;54.616;39.786;2023-06-10T12:13:48;2.28;;;1.13;;
49626;SDS011;35527;54.616;39.786;2023-06-10T12:16:52;5.33;;;1.40;;
49626;SDS011;35527;54.616;39.786;2023-06-10T12:19:55;2.95;;;1.10;;
49626;SDS011;35527;54.616;39.786;2023-06-10T12:22:59;4.43;;;1.20;;
49626;SDS011;35527;54.616;39.786;2023-06-10T12:26:03;1.88;;;1.00;;
49626;SDS011;35527;54.616;39.786;2023-06-10T12:29:23;2.60;;;1.00;;
49626;SDS011;35527;54.616;39.786;2023-06-10T12:32:42;3.00;;;1.08;;
49626;SDS011;35527;54.616;39.786;2023-06-10T12:35:48;5.90;;;1.25;;
49626;SDS011;35527;54.616;39.786;2023-06-10T12:38:52;3.08;;;1.02;;
49626;SDS011;35527;54.616;39.786;2023-06-10T12:41:55;1.60;;;1.00;;
49626;SDS011;35527;54.616;39.786;2023-06-10T12:45:03;2.78;;;0.90;;
49626;SDS011;35527;54.616;39.786;2023-06-10T12:48:21;2.33;;;1.00;;
49626;SDS011;35527;54.616;39.786;2023-06-10T12:51:27;2.90;;;1.35;;
49626;SDS011;35527;54.616;39.786;2023-06-10T12:57:34;3.65;;;1.00;;
49626;SDS011;35527;54.616;39.786;2023-06-10T13:00:37;4.43;;;1.08;;
49626;SDS011;35527;54.616;39.786;2023-06-10T13:03:42;3.55;;;1.20;;
49626;SDS011;35527;54.616;39.786;2023-06-10T13:06:48;1.90;;;0.90;;
49626;SDS011;35527;54.616;39.786;2023-06-10T13:09:52;3.17;;;1.23;;
49626;SDS011;35527;54.616;39.786;2023-06-10T13:12:57;3.80;;;1.00;;
49626;SDS011;35527;54.616;39.786;2023-06-10T13:16:02;1.77;;;0.95;;
49626;SDS011;35527;54.616;39.786;2023-06-10T13:19:04;3.00;;;1.27;;
49626;SDS011;35527;54.616;39.786;2023-06-10T13:22:09;1.33;;;0.80;;
49626;SDS011;35527;54.616;39.786;2023-06-10T13:25:12;2.90;;;1.08;;
49626;SDS011;35527;54.616;39.786;2023-06-10T13:28:15;2.97;;;1.00;;
49626;SDS011;35527;54.616;39.786;2023-06-10T13:31:19;3.03;;;1.00;;
49626;SDS011;35527;54.616;39.786;2023-06-10T13:34:24;2.97;;;1.00;;
49626;SDS011;35527;54.616;39.786;2023-06-10T13:37:27;4.57;;;1.08;;
49626;SDS011;35527;54.616;39.786;2023-06-10T13:40:33;3.92;;;0.95;;
49626;SDS011;35527;54.616;39.786;2023-06-10T13:43:37;2.67;;;0.87;;
49626;SDS011;35527;54.616;39.786;2023-06-10T13:46:42;2.75;;;1.00;;
49626;SDS011;35527;54.616;39.786;2023-06-10T13:49:49;4.30;;;0.90;;
49626;SDS011;35527;54.616;39.786;2023-06-10T13:52:54;3.63;;;1.13;;
49626;SDS011;35527;54.616;39.786;2023-06-10T13:55:57;2.67;;;0.88;;
49626;SDS011;35527;54.616;39.786;2023-06-10T13:59:01;5.97;;;1.10;;
49626;SDS011;35527;54.616;39.786;2023-06-10T14:02:05;2.53;;;0.90;;
49626;SDS011;35527;54.616;39.786;2023-06-10T14:05:09;2.28;;;1.00;;
49626;SDS011;35527;54.616;39.786;2023-06-10T14:08:12;3.58;;;0.95;;
49626;SDS011;35527;54.616;39.786;2023-06-10T14:11:15;2.75;;;1.00;;
49626;SDS011;35527;54.616;39.786;2023-06-10T14:14:19;2.88;;;0.98;;
49626;SDS011;35527;54.616;39.786;2023-06-10T14:17:23;2.13;;;0.80;;
49626;SDS011;35527;54.616;39.786;2023-06-10T14:20:26;2.90;;;0.90;;
49626;SDS011;35527;54.616;39.786;2023-06-10T14:23:33;3.72;;;0.93;;
49626;SDS011;35527;54.616;39.786;2023-06-10T14:26:40;1.48;;;0.90;;
49626;SDS011;35527;54.616;39.786;2023-06-10T14:29:46;2.47;;;0.90;;
49626;SDS011;35527;54.616;39.786;2023-06-10T14:32:51;3.17;;;0.88;;
49626;SDS011;35527;54.616;39.786;2023-06-10T14:35:54;3.08;;;0.82;;
49626;SDS011;35527;54.616;39.786;2023-06-10T14:38:59;3.58;;;1.00;;
49626;SDS011;35527;54.616;39.786;2023-06-10T14:42:05;3.35;;;0.95;;
49626;SDS011;35527;54.616;39.786;2023-06-10T14:45:09;1.67;;;0.97;;
49626;SDS011;35527;54.616;39.786;2023-06-10T14:48:12;2.67;;;1.17;;
49626;SDS011;35527;54.616;39.786;2023-06-10T14:51:15;4.47;;;1.15;;
49626;SDS011;35527;54.616;39.786;2023-06-10T14:54:18;3.83;;;1.20;;
49626;SDS011;35527;54.616;39.786;2023-06-10T14:57:21;3.35;;;1.00;;
49626;SDS011;35527;54.616;39.786;2023-06-10T15:00:24;4.45;;;0.98;;
49626;SDS011;35527;54.616;39.786;2023-06-10T15:03:29;3.63;;;1.20;;
49626;SDS011;35527;54.616;39.786;2023-06-10T15:06:31;4.57;;;1.13;;
49626;SDS011;35527;54.616;39.786;2023-06-10T15:09:35;3.20;;;0.90;;
49626;SDS011;35527;54.616;39.786;2023-06-10T15:12:39;2.90;;;0.90;;
49626;SDS011;35527;54.616;39.786;2023-06-10T15:15:44;3.55;;;1.10;;
49626;SDS011;35527;54.616;39.786;2023-06-10T15:18:47;3.22;;;0.77;;
49626;SDS011;35527;54.616;39.786;2023-06-10T15:21:50;3.78;;;1.10;;
49626;SDS011;35527;54.616;39.786;2023-06-10T15:24:53;5.03;;;1.00;;
49626;SDS011;35527;54.616;39.786;2023-06-10T15:28:00;4.07;;;1.10;;
49626;SDS011;35527;54.616;39.786;2023-06-10T15:31:02;3.90;;;1.15;;
49626;SDS011;35527;54.616;39.786;2023-06-10T15:34:07;2.13;;;0.85;;
49626;SDS011;35527;54.616;39.786;2023-06-10T15:37:15;1.85;;;0.80;;
49626;SDS011;35527;54.616;39.786;2023-06-10T15:40:22;4.53;;;0.90;;
49626;SDS011;35527;54.616;39.786;2023-06-10T15:43:25;2.45;;;1.08;;
49626;SDS011;35527;54.616;39.786;2023-06-10T15:46:31;2.47;;;0.93;;
49626;SDS011;35527;54.616;39.786;2023-06-10T15:49:34;2.72;;;1.00;;
49626;SDS011;35527;54.616;39.786;2023-06-10T15:52:36;1.98;;;0.95;;
49626;SDS011;35527;54.616;39.786;2023-06-10T15:55:40;4.57;;;1.23;;
49626;SDS011;35527;54.616;39.786;2023-06-10T15:58:44;3.17;;;0.95;;
49626;SDS011;35527;54.616;39.786;2023-06-10T16:01:48;3.47;;;1.00;;
49626;SDS011;35527;54.616;39.786;2023-06-10T16:04:52;2.40;;;1.00;;
49626;SDS011;35527;54.616;39.786;2023-06-10T16:07:55;5.72;;;1.23;;
49626;SDS011;35527;54.616;39.786;2023-06-10T16:10:58;5.32;;;1.00;;
49626;SDS011;35527;54.616;39.786;2023-06-10T16:14:02;4.32;;;0.80;;
49626;SDS011;35527;54.616;39.786;2023-06-10T16:17:08;3.90;;;1.20;;
49626;SDS011;35527;54.616;39.786;2023-06-10T16:20:12;4.40;;;1.15;;
49626;SDS011;35527;54.616;39.786;2023-06-10T16:23:21;4.05;;;1.30;;
49626;SDS011;35527;54.616;39.786;2023-06-10T16:26:24;4.63;;;1.20;;
49626;SDS011;35527;54.616;39.786;2023-06-10T16:29:33;4.88;;;1.30;;
49626;SDS011;35527;54.616;39.786;2023-06-10T16:32:38;2.60;;;0.80;;
49626;SDS011;35527;54.616;39.786;2023-06-10T16:35:43;3.85;;;1.10;;
49626;SDS011;35527;54.616;39.786;2023-06-10T16:38:45;3.67;;;0.93;;
49626;SDS011;35527;54.616;39.786;2023-06-10T16:41:50;4.97;;;1.15;;
49626;SDS011;35527;54.616;39.786;2023-06-10T16:44:53;5.25;;;1.23;;
49626;SDS011;35527;54.616;39.786;2023-06-10T16:47:56;3.45;;;1.02;;
49626;SDS011;35527;54.616;39.786;2023-06-10T16:51:02;2.85;;;1.20;;
49626;SDS011;35527;54.616;39.786;2023-06-10T16:54:06;4.47;;;1.00;;
49626;SDS011;35527;54.616;39.786;2023-06-10T16:57:09;2.58;;;1.00;;
49626;SDS011;35527;54.616;39.786;2023-06-10T17:00:13;2.65;;;1.17;;
49626;SDS011;35527;54.616;39.786;2023-06-10T17:03:18;2.33;;;1.10;;
49626;SDS011;35527;54.616;39.786;2023-06-10T17:06:22;5.47;;;1.33;;
49626;SDS011;35527;54.616;39.786;2023-06-10T17:09:25;3.08;;;1.20;;
49626;SDS011;35527;54.616;39.786;2023-06-10T17:12:29;2.92;;;1.38;;
49626;SDS011;35527;54.616;39.786;2023-06-10T17:15:32;5.38;;;1.30;;
49626;SDS011;35527;54.616;39.786;2023-06-10T17:18:36;4.15;;;1.20;;
49626;SDS011;35527;54.616;39.786;2023-06-10T17:21:44;3.92;;;1.00;;
49626;SDS011;35527;54.616;39.786;2023-06-10T17:24:48;4.65;;;1.10;;
49626;SDS011;35527;54.616;39.786;2023-06-10T17:27:52;4.43;;;1.45;;
49626;SDS011;35527;54.616;39.786;2023-06-10T17:30:56;3.00;;;1.00;;
49626;SDS011;35527;54.616;39.786;2023-06-10T17:33:58;3.58;;;1.30;;
49626;SDS011;35527;54.616;39.786;2023-06-10T17:37:06;3.42;;;1.27;;
49626;SDS011;35527;54.616;39.786;2023-06-10T17:40:10;2.30;;;1.10;;
49626;SDS011;35527;54.616;39.786;2023-06-10T17:43:18;2.25;;;1.17;;
49626;SDS011;35527;54.616;39.786;2023-06-10T17:46:26;5.45;;;1.30;;
49626;SDS011;35527;54.616;39.786;2023-06-10T17:49:33;2.65;;;0.98;;
49626;SDS011;35527;54.616;39.786;2023-06-10T17:52:37;3.25;;;1.10;;
49626;SDS011;35527;54.616;39.786;2023-06-10T17:55:42;3.53;;;1.23;;
49626;SDS011;35527;54.616;39.786;2023-06-10T17:58:46;3.13;;;1.23;;
49626;SDS011;35527;54.616;39.786;2023-06-10T18:01:50;6.10;;;1.25;;
49626;SDS011;35527;54.616;39.786;2023-06-10T18:04:54;4.53;;;1.30;;
49626;SDS011;35527;54.616;39.786;2023-06-10T18:07:58;3.42;;;1.40;;
49626;SDS011;35527;54.616;39.786;2023-06-10T18:11:02;4.75;;;1.35;;
49626;SDS011;35527;54.616;39.786;2023-06-10T18:14:05;4.20;;;1.40;;
49626;SDS011;35527;54.616;39.786;2023-06-10T18:17:10;3.90;;;1.60;;
49626;SDS011;35527;54.616;39.786;2023-06-10T18:20:14;5.65;;;1.45;;
49626;SDS011;35527;54.616;39.786;2023-06-10T18:23:17;5.10;;;1.40;;
49626;SDS011;35527;54.616;39.786;2023-06-10T18:26:20;5.10;;;1.58;;
49626;SDS011;35527;54.616;39.786;2023-06-10T18:29:23;3.95;;;1.30;;
49626;SDS011;35527;54.616;39.786;2023-06-10T18:32:27;3.55;;;1.38;;
49626;SDS011;35527;54.616;39.786;2023-06-10T18:35:29;5.70;;;1.60;;
49626;SDS011;35527;54.616;39.786;2023-06-10T18:38:34;3.55;;;1.65;;
49626;SDS011;35527;54.616;39.786;2023-06-10T18:41:37;4.03;;;1.20;;
49626;SDS011;35527;54.616;39.786;2023-06-10T18:44:42;5.18;;;1.58;;
49626;SDS011;35527;54.616;39.786;2023-06-10T18:47:47;4.93;;;1.50;;
49626;SDS011;35527;54.616;39.786;2023-06-10T18:50:59;3.92;;;1.50;;
49626;SDS011;35527;54.616;39.786;2023-06-10T18:54:01;3.05;;;1.33;;